Time;durP1;ratioP1;P1;durP2;ratioP2;P2;SDS_P1;SDS_P2;PMS_P1;PMS_P2;Temp;Humidity;BMP_temperature;BMP_pressure;BME280_temperature;BME280_humidity;BME280_pressure;Samples;Min_cycle;Max_cycle;Signal;HPM_P1;HPM_P2
2023/04/18 00:02:16;;;;;;;12.18;6.72;;;8.70;99.90;;;;;;5076197;28;20016;-68
2023/04/18 00:04:45;;;;;;;13.55;7.30;;;8.70;99.90;;;;;;5076502;28;20017;-68
2023/04/18 00:07:12;;;;;;;15.07;7.47;;;8.60;99.90;;;;;;5075967;28;20082;-68
2023/04/18 00:09:37;;;;;;;15.77;6.28;;;8.60;99.90;;;;;;5076921;28;20028;-68
2023/04/18 00:12:03;;;;;;;15.13;6.57;;;8.60;99.90;;;;;;5075981;28;20025;-73
2023/04/18 00:14:29;;;;;;;12.65;6.10;;;8.60;99.90;;;;;;5076431;28;20106;-73
2023/04/18 00:16:54;;;;;;;14.80;5.97;;;8.60;99.90;;;;;;5076271;28;20103;-73
2023/04/18 00:19:20;;;;;;;10.88;5.97;;;8.60;99.90;;;;;;5076091;28;20024;-73
2023/04/18 00:21:46;;;;;;;12.70;6.25;;;8.60;99.90;;;;;;5077396;28;20073;-73
2023/04/18 00:24:11;;;;;;;10.38;5.82;;;8.70;99.90;;;;;;5077064;28;20029;-73
2023/04/18 00:26:37;;;;;;;11.48;5.90;;;8.80;99.90;;;;;;5076174;28;20025;-73
2023/04/18 00:29:02;;;;;;;12.23;6.00;;;8.80;99.90;;;;;;5076572;28;20039;-73
2023/04/18 00:31:28;;;;;;;18.33;6.30;;;8.80;99.90;;;;;;5075874;28;20020;-68
2023/04/18 00:33:53;;;;;;;16.70;6.18;;;8.80;99.90;;;;;;5076562;28;20024;-69
2023/04/18 00:36:19;;;;;;;14.23;6.68;;;8.70;99.90;;;;;;5075874;28;20043;-69
2023/04/18 00:38:44;;;;;;;17.60;6.10;;;8.60;99.90;;;;;;5075636;28;20032;-69
2023/04/18 00:41:10;;;;;;;17.45;5.93;;;8.50;99.90;;;;;;5077073;28;20067;-73
2023/04/18 00:43:36;;;;;;;10.65;5.63;;;8.50;99.90;;;;;;5076818;28;20033;-73
2023/04/18 00:46:02;;;;;;;10.85;6.43;;;8.60;99.90;;;;;;5080532;28;20066;-73
2023/04/18 00:48:29;;;;;;;19.00;6.20;;;8.50;99.90;;;;;;5080785;28;20120;-73
2023/04/18 00:50:54;;;;;;;12.48;5.55;;;8.50;99.90;;;;;;5084042;28;20028;-73
2023/04/18 00:53:20;;;;;;;9.57;5.57;;;8.50;99.90;;;;;;5079877;28;20125;-73
2023/04/18 00:55:46;;;;;;;15.05;6.32;;;8.50;99.90;;;;;;5079908;28;20024;-73
2023/04/18 00:58:12;;;;;;;19.00;6.75;;;8.50;99.90;;;;;;5080937;28;20021;-71
2023/04/18 01:00:38;;;;;;;14.98;6.45;;;8.40;99.90;;;;;;5084927;28;20063;-71
2023/04/18 01:03:05;;;;;;;9.10;5.95;;;8.40;99.90;;;;;;5081006;28;20070;-71
2023/04/18 01:05:31;;;;;;;11.65;6.30;;;8.30;99.90;;;;;;5080208;28;20024;-68
2023/04/18 01:07:59;;;;;;;15.32;6.50;;;8.30;99.90;;;;;;5079740;28;20051;-68
2023/04/18 01:10:26;;;;;;;18.27;6.05;;;8.20;99.90;;;;;;5079808;28;20020;-68
2023/04/18 01:13:15;;;;;;;13.93;6.43;;;8.20;99.90;;;;;;5080240;28;20028;-73
2023/04/18 01:15:46;;;;;;;13.60;6.10;;;8.20;99.90;;;;;;5079897;28;20065;-71
2023/04/18 01:18:12;;;;;;;13.73;6.50;;;8.10;99.90;;;;;;5081380;28;20024;-71
2023/04/18 01:20:46;;;;;;;14.35;6.22;;;8.20;99.90;;;;;;5079891;28;20024;-71
2023/04/18 01:23:13;;;;;;;14.48;7.25;;;8.20;99.90;;;;;;5080216;28;20047;-68
2023/04/18 01:25:39;;;;;;;15.13;7.07;;;8.20;99.90;;;;;;5079380;28;20101;-68
2023/04/18 01:28:05;;;;;;;12.20;7.28;;;8.10;99.90;;;;;;5079917;28;20083;-68
2023/04/18 01:30:32;;;;;;;14.75;7.80;;;8.00;99.90;;;;;;5080339;28;20076;-68
2023/04/18 01:33:00;;;;;;;14.05;7.05;;;7.90;99.90;;;;;;5079204;28;20024;-68
2023/04/18 01:35:27;;;;;;;14.85;6.60;;;7.90;99.90;;;;;;5080307;28;20028;-68
2023/04/18 01:37:52;;;;;;;14.43;6.97;;;8.00;99.90;;;;;;5080474;28;20064;-68
2023/04/18 01:40:18;;;;;;;16.95;7.78;;;8.10;99.90;;;;;;5080849;28;20032;-68
2023/04/18 01:42:43;;;;;;;14.98;7.00;;;8.10;99.90;;;;;;5081658;28;20053;-69
2023/04/18 01:45:10;;;;;;;19.15;7.35;;;8.20;99.90;;;;;;5079920;28;20078;-69
2023/04/18 01:47:35;;;;;;;18.00;8.18;;;8.30;99.90;;;;;;5083906;28;20032;-68
2023/04/18 01:50:02;;;;;;;15.60;7.78;;;8.30;99.90;;;;;;5081618;28;20021;-73
2023/04/18 01:52:28;;;;;;;19.95;8.10;;;8.40;99.90;;;;;;5079013;28;20055;-73
2023/04/18 01:54:54;;;;;;;15.45;8.85;;;8.40;99.90;;;;;;5084489;28;20040;-73
2023/04/18 01:57:19;;;;;;;13.88;7.60;;;8.40;99.90;;;;;;5078577;28;20048;-73
2023/04/18 01:59:45;;;;;;;13.57;7.55;;;8.40;99.90;;;;;;5080447;28;20017;-72
2023/04/18 02:02:10;;;;;;;14.65;7.90;;;8.40;99.90;;;;;;5080851;28;20025;-73
2023/04/18 02:04:36;;;;;;;14.45;7.45;;;8.30;99.90;;;;;;5079195;28;20080;-73
2023/04/18 02:07:01;;;;;;;14.20;6.93;;;8.30;99.90;;;;;;5078194;28;20020;-73
2023/04/18 02:09:27;;;;;;;14.02;7.57;;;8.20;99.90;;;;;;5079191;28;20028;-73
2023/04/18 02:11:55;;;;;;;20.35;8.05;;;8.10;99.90;;;;;;5078344;28;20024;-73
2023/04/18 02:14:20;;;;;;;18.55;8.50;;;8.10;99.90;;;;;;5078863;28;20028;-73
2023/04/18 02:16:46;;;;;;;14.52;8.00;;;8.10;99.90;;;;;;5077842;28;20020;-73
2023/04/18 02:19:11;;;;;;;23.40;9.40;;;8.00;99.90;;;;;;5077970;28;20077;-73
2023/04/18 02:21:37;;;;;;;14.25;7.93;;;8.00;99.90;;;;;;5077828;28;20032;-73
2023/04/18 02:24:03;;;;;;;18.98;8.32;;;8.00;99.90;;;;;;5077958;28;20024;-68
2023/04/18 02:26:28;;;;;;;16.35;8.48;;;8.00;99.90;;;;;;5078111;28;20024;-68
2023/04/18 02:28:54;;;;;;;15.90;8.57;;;8.00;99.90;;;;;;5077805;28;20063;-68
2023/04/18 02:31:20;;;;;;;16.27;8.13;;;8.00;99.90;;;;;;5077631;28;20044;-68
2023/04/18 02:33:46;;;;;;;18.38;8.20;;;7.90;99.90;;;;;;5078505;28;20060;-68
2023/04/18 02:36:12;;;;;;;13.98;7.70;;;7.90;99.90;;;;;;5077500;28;20016;-69
2023/04/18 02:38:37;;;;;;;17.55;8.48;;;8.10;99.90;;;;;;5077763;28;20044;-68
2023/04/18 02:41:03;;;;;;;19.45;8.50;;;8.10;99.90;;;;;;5077421;28;20056;-68
2023/04/18 02:43:29;;;;;;;16.27;8.65;;;8.20;99.90;;;;;;5077718;28;20020;-68
2023/04/18 02:45:55;;;;;;;14.95;8.63;;;8.30;99.90;;;;;;5077649;28;20115;-68
2023/04/18 02:48:23;;;;;;;19.63;8.80;;;8.40;99.90;;;;;;5077550;28;20115;-68
2023/04/18 02:50:49;;;;;;;24.30;10.32;;;8.40;99.90;;;;;;5077423;28;20112;-68
2023/04/18 02:53:15;;;;;;;19.08;8.52;;;8.30;99.90;;;;;;5077596;28;20105;-68
2023/04/18 02:55:41;;;;;;;16.58;8.80;;;8.30;99.90;;;;;;5077132;28;20111;-69
2023/04/18 02:58:07;;;;;;;16.75;8.27;;;8.30;99.90;;;;;;5081913;28;20032;-69
2023/04/18 03:00:33;;;;;;;18.55;8.27;;;8.30;99.90;;;;;;5076948;28;20020;-69
2023/04/18 03:02:58;;;;;;;17.95;8.85;;;8.20;99.90;;;;;;5077868;28;20107;-69
2023/04/18 03:05:24;;;;;;;17.95;8.55;;;8.20;99.90;;;;;;5077569;28;20103;-69
2023/04/18 03:07:49;;;;;;;17.88;8.63;;;8.10;99.90;;;;;;5076565;28;20028;-69
2023/04/18 03:10:15;;;;;;;23.83;8.30;;;8.00;99.90;;;;;;5077677;28;20024;-69
2023/04/18 03:12:41;;;;;;;15.85;7.55;;;8.00;99.90;;;;;;5076702;28;20024;-69
2023/04/18 03:15:06;;;;;;;16.33;8.63;;;7.90;99.90;;;;;;5077037;28;20020;-69
2023/04/18 03:17:34;;;;;;;18.60;9.55;;;7.90;99.90;;;;;;5078070;28;20029;-69
2023/04/18 03:20:00;;;;;;;22.58;9.35;;;7.90;99.90;;;;;;5077515;28;20044;-68
2023/04/18 03:22:25;;;;;;;19.48;9.13;;;7.90;99.90;;;;;;5076620;28;20031;-69
2023/04/18 03:24:51;;;;;;;20.00;9.65;;;7.90;99.90;;;;;;5076484;28;20019;-69
2023/04/18 03:27:17;;;;;;;17.27;8.55;;;7.90;99.90;;;;;;5077611;28;20024;-69
2023/04/18 03:29:42;;;;;;;20.08;9.18;;;7.90;99.90;;;;;;5076366;28;20181;-69
2023/04/18 03:32:08;;;;;;;18.98;9.52;;;7.90;99.90;;;;;;5077726;28;20090;-69
2023/04/18 03:34:33;;;;;;;19.90;8.73;;;7.90;99.90;;;;;;5076591;28;20027;-69
2023/04/18 03:36:59;;;;;;;16.45;8.50;;;7.80;99.90;;;;;;5076590;28;20020;-69
2023/04/18 03:39:24;;;;;;;16.98;8.32;;;7.80;99.90;;;;;;5076657;28;20028;-69
2023/04/18 03:41:51;;;;;;;21.27;10.10;;;7.70;99.90;;;;;;5077176;28;20029;-69
2023/04/18 03:44:16;;;;;;;18.75;9.77;;;7.70;99.90;;;;;;5076569;28;20032;-68
2023/04/18 03:46:42;;;;;;;20.55;7.60;;;7.70;99.90;;;;;;5081420;28;20048;-68
2023/04/18 03:49:07;;;;;;;24.83;9.50;;;7.70;99.90;;;;;;5076617;28;20024;-69
2023/04/18 03:51:46;;;;;;;20.08;9.15;;;7.60;99.90;;;;;;5077275;28;20086;-69
2023/04/18 03:54:12;;;;;;;18.10;8.85;;;7.60;99.90;;;;;;5076253;28;20116;-69
2023/04/18 03:56:38;;;;;;;19.05;9.07;;;7.50;99.90;;;;;;5077054;28;20056;-69
2023/04/18 03:59:04;;;;;;;15.80;8.52;;;7.50;99.90;;;;;;5076895;28;20020;-69
2023/04/18 04:01:29;;;;;;;18.08;9.75;;;7.50;99.90;;;;;;5081703;28;20017;-68
2023/04/18 04:03:55;;;;;;;17.75;8.95;;;7.50;99.90;;;;;;5076682;28;20054;-68
2023/04/18 04:06:20;;;;;;;25.52;10.10;;;7.60;99.90;;;;;;5076935;28;20025;-69
2023/04/18 04:08:46;;;;;;;17.85;9.65;;;7.60;99.90;;;;;;5077126;28;20035;-68
2023/04/18 04:11:11;;;;;;;24.05;10.15;;;7.60;99.90;;;;;;5077473;28;20031;-68
2023/04/18 04:13:37;;;;;;;20.92;10.32;;;7.60;99.90;;;;;;5076040;28;20071;-68
2023/04/18 04:16:03;;;;;;;20.00;9.88;;;7.60;99.90;;;;;;5076889;28;20020;-69
2023/04/18 04:18:30;;;;;;;20.65;9.90;;;7.60;99.90;;;;;;5075832;28;20021;-69
2023/04/18 04:20:59;;;;;;;20.55;10.20;;;7.70;99.90;;;;;;5081408;28;20021;-69
2023/04/18 04:23:25;;;;;;;19.13;9.88;;;7.70;99.90;;;;;;5080136;28;20046;-69
2023/04/18 04:25:51;;;;;;;19.25;9.68;;;7.80;99.90;;;;;;5081052;28;20024;-68
2023/04/18 04:28:21;;;;;;;24.98;9.93;;;7.70;99.90;;;;;;5079873;28;20124;-69
2023/04/18 04:30:49;;;;;;;20.50;9.95;;;7.70;99.90;;;;;;5079982;28;20020;-69
2023/04/18 04:33:19;;;;;;;19.90;10.23;;;7.70;99.90;;;;;;5079938;28;20027;-69
2023/04/18 04:35:46;;;;;;;25.45;10.65;;;7.70;99.90;;;;;;5080354;28;20020;-69
2023/04/18 04:38:15;;;;;;;21.85;10.15;;;7.80;99.90;;;;;;5092386;23;20048;-70
2023/04/18 04:40:41;;;;;;;25.27;10.50;;;7.80;99.90;;;;;;5060596;28;20056;-68
2023/04/18 04:43:11;;;;;;;21.05;10.07;;;7.80;99.90;;;;;;5059751;28;20017;-68
2023/04/18 04:45:38;;;;;;;21.85;10.15;;;7.80;99.90;;;;;;5060544;28;20021;-68
2023/04/18 04:48:04;;;;;;;25.27;11.00;;;7.80;99.90;;;;;;5068522;28;20027;-68
2023/04/18 04:50:32;;;;;;;20.33;9.98;;;7.80;99.90;;;;;;5079536;28;20016;-69
2023/04/18 04:52:57;;;;;;;22.55;11.13;;;7.80;99.90;;;;;;5080280;28;20024;-69
2023/04/18 04:55:23;;;;;;;22.55;11.50;;;7.80;99.90;;;;;;5079387;28;20021;-69
2023/04/18 04:57:49;;;;;;;17.95;10.10;;;7.80;99.90;;;;;;5079227;28;20020;-69
2023/04/18 05:00:19;;;;;;;20.75;10.38;;;7.80;99.90;;;;;;5080280;28;20024;-69
2023/04/18 05:02:45;;;;;;;21.95;9.50;;;7.90;99.90;;;;;;5079325;28;20029;-69
2023/04/18 05:05:11;;;;;;;21.25;9.63;;;7.90;99.90;;;;;;5080061;28;20031;-69
2023/04/18 05:07:36;;;;;;;23.80;9.43;;;7.90;99.90;;;;;;5080016;28;20111;-69
2023/04/18 05:10:03;;;;;;;16.10;8.95;;;8.00;99.90;;;;;;5079072;28;20016;-69
2023/04/18 05:12:28;;;;;;;17.40;8.10;;;8.10;99.90;;;;;;5079195;28;20077;-69
2023/04/18 05:14:54;;;;;;;18.88;9.32;;;8.10;99.90;;;;;;5079105;28;20103;-68
2023/04/18 05:17:20;;;;;;;20.63;8.95;;;8.10;99.90;;;;;;5079767;28;20107;-68
2023/04/18 05:19:45;;;;;;;15.48;8.52;;;8.10;99.90;;;;;;5079830;28;20027;-68
2023/04/18 05:22:11;;;;;;;14.43;7.82;;;8.10;99.90;;;;;;5079255;28;20028;-68
2023/04/18 05:24:36;;;;;;;18.50;8.60;;;8.20;99.90;;;;;;5080053;28;20064;-68
2023/04/18 05:27:02;;;;;;;21.75;8.77;;;8.20;99.90;;;;;;5078740;28;20027;-68
2023/04/18 05:29:28;;;;;;;16.73;8.10;;;8.20;99.90;;;;;;5078596;28;20032;-68
2023/04/18 05:31:54;;;;;;;17.45;9.15;;;8.30;99.90;;;;;;5078676;28;20017;-68
2023/04/18 05:34:19;;;;;;;19.30;8.52;;;8.30;99.90;;;;;;5079515;28;20078;-69
2023/04/18 05:36:46;;;;;;;14.38;7.30;;;8.20;99.90;;;;;;5078908;28;20024;-72
2023/04/18 05:39:12;;;;;;;15.48;7.18;;;8.30;99.90;;;;;;5079463;28;20028;-72
2023/04/18 05:41:37;;;;;;;11.23;6.95;;;8.40;99.90;;;;;;5078553;28;20089;-72
2023/04/18 05:44:03;;;;;;;13.57;6.78;;;8.40;99.90;;;;;;5079738;28;20029;-72
2023/04/18 05:46:28;;;;;;;13.43;6.97;;;8.50;99.90;;;;;;5079648;28;20056;-72
2023/04/18 05:48:54;;;;;;;16.20;7.72;;;8.60;99.90;;;;;;5078646;28;20028;-72
2023/04/18 05:51:20;;;;;;;14.20;7.47;;;8.70;99.90;;;;;;5079352;28;20042;-72
2023/04/18 05:53:45;;;;;;;14.13;7.43;;;8.70;99.90;;;;;;5078606;28;20035;-72
2023/04/18 05:56:11;;;;;;;12.23;7.18;;;8.80;99.90;;;;;;5078788;28;20025;-72
2023/04/18 05:58:36;;;;;;;12.45;7.00;;;8.70;99.90;;;;;;5078769;28;20032;-72
2023/04/18 06:01:02;;;;;;;12.90;6.80;;;8.80;99.90;;;;;;5078117;28;20035;-72
2023/04/18 06:03:27;;;;;;;14.13;9.82;;;8.70;99.90;;;;;;5078626;28;20134;-70
2023/04/18 06:05:53;;;;;;;9.52;5.70;;;8.70;99.90;;;;;;5079283;28;20032;-70
2023/04/18 06:08:18;;;;;;;9.60;5.25;;;8.80;99.90;;;;;;5078272;28;20024;-70
2023/04/18 06:10:44;;;;;;;10.68;5.70;;;8.90;99.90;;;;;;5078343;28;20107;-70
2023/04/18 06:13:09;;;;;;;13.68;6.55;;;9.00;99.90;;;;;;5078221;28;20040;-70
2023/04/18 06:15:35;;;;;;;10.95;6.32;;;9.10;99.90;;;;;;5078764;28;20025;-71
2023/04/18 06:18:00;;;;;;;13.88;6.45;;;9.20;99.90;;;;;;5077915;28;20016;-70
2023/04/18 06:20:26;;;;;;;11.13;6.63;;;9.20;99.90;;;;;;5078130;28;20024;-71
2023/04/18 06:22:52;;;;;;;12.80;7.05;;;9.20;99.90;;;;;;5077813;28;20024;-71
2023/04/18 06:25:17;;;;;;;11.65;6.93;;;9.20;99.90;;;;;;5078815;28;20111;-71
2023/04/18 06:27:43;;;;;;;16.35;6.70;;;9.30;99.90;;;;;;5077596;28;20115;-71
2023/04/18 06:30:09;;;;;;;15.02;7.40;;;9.40;99.90;;;;;;5078451;28;20028;-71
2023/04/18 06:32:35;;;;;;;18.95;8.18;;;9.50;99.90;;;;;;5077963;28;20146;-74
2023/04/18 06:35:01;;;;;;;15.63;7.75;;;9.50;99.90;;;;;;5077983;28;20074;-73
2023/04/18 06:37:26;;;;;;;15.27;7.43;;;9.50;99.90;;;;;;5077848;28;20021;-71
2023/04/18 06:39:52;;;;;;;15.00;7.72;;;9.50;99.90;;;;;;5078404;28;20028;-74
2023/04/18 06:42:17;;;;;;;17.25;7.47;;;9.50;99.90;;;;;;5077668;28;20028;-74
2023/04/18 06:44:43;;;;;;;14.98;7.40;;;9.50;99.90;;;;;;5077936;28;20098;-73
2023/04/18 06:47:09;;;;;;;14.40;7.57;;;9.50;99.90;;;;;;5077975;28;20074;-73
2023/04/18 06:49:35;;;;;;;15.30;7.38;;;9.50;99.90;;;;;;5078240;28;20048;-71
2023/04/18 06:52:00;;;;;;;22.02;8.57;;;9.60;99.90;;;;;;5086498;28;20028;-74
2023/04/18 06:54:26;;;;;;;12.50;7.20;;;9.50;99.90;;;;;;5078275;28;20017;-74
2023/04/18 06:56:52;;;;;;;14.98;8.13;;;9.50;99.90;;;;;;5077180;28;20108;-73
2023/04/18 06:59:20;;;;;;;17.83;7.82;;;9.60;99.90;;;;;;5077426;28;20032;-73
2023/04/18 07:01:46;;;;;;;17.15;8.40;;;9.70;99.90;;;;;;5077667;28;20035;-73
2023/04/18 07:04:11;;;;;;;14.15;7.68;;;9.80;99.90;;;;;;5077734;28;20017;-77
2023/04/18 07:06:37;;;;;;;17.25;8.15;;;9.90;99.90;;;;;;5078076;28;20052;-74
2023/04/18 07:09:02;;;;;;;18.35;7.45;;;9.80;99.90;;;;;;5077548;28;20024;-73
2023/04/18 07:11:28;;;;;;;17.77;7.70;;;9.90;99.90;;;;;;5076925;28;20028;-73
2023/04/18 07:13:54;;;;;;;18.08;8.02;;;9.90;99.90;;;;;;5076678;28;20031;-73
2023/04/18 07:16:20;;;;;;;12.63;7.25;;;9.80;99.90;;;;;;5077595;28;20024;-73
2023/04/18 07:18:45;;;;;;;17.33;8.13;;;9.90;99.90;;;;;;5076983;28;20024;-73
2023/04/18 07:21:11;;;;;;;15.75;7.60;;;10.00;99.90;;;;;;5077061;28;20036;-73
2023/04/18 07:23:37;;;;;;;16.85;7.57;;;10.10;99.90;;;;;;5077037;28;20032;-73
2023/04/18 07:26:04;;;;;;;18.67;7.75;;;10.00;99.90;;;;;;5077095;28;20048;-73
2023/04/18 07:28:30;;;;;;;14.30;6.50;;;10.10;99.90;;;;;;5076521;28;20048;-73
2023/04/18 07:30:56;;;;;;;18.58;7.20;;;10.00;99.90;;;;;;5077294;28;20021;-73
2023/04/18 07:33:22;;;;;;;18.13;7.22;;;10.00;99.90;;;;;;5076514;28;20021;-69
2023/04/18 07:35:49;;;;;;;16.45;6.88;;;10.00;99.90;;;;;;5077099;28;20067;-69
2023/04/18 07:38:15;;;;;;;17.63;7.40;;;10.00;99.90;;;;;;5076567;28;20041;-69
2023/04/18 07:40:41;;;;;;;13.85;6.70;;;10.00;99.90;;;;;;5077173;28;20052;-69
2023/04/18 07:43:06;;;;;;;12.75;6.95;;;10.00;99.90;;;;;;5076408;28;20032;-69
2023/04/18 07:45:34;;;;;;;16.08;7.28;;;10.00;99.90;;;;;;5076599;28;20026;-69
2023/04/18 07:48:01;;;;;;;11.95;6.20;;;10.00;99.90;;;;;;5076186;28;20032;-69
2023/04/18 07:50:27;;;;;;;12.88;6.18;;;9.90;99.90;;;;;;5076272;28;20020;-69
2023/04/18 07:52:52;;;;;;;9.93;5.38;;;9.90;99.90;;;;;;5076964;28;20074;-69
2023/04/18 07:55:18;;;;;;;13.30;6.00;;;9.70;99.90;;;;;;5075698;28;20017;-69
2023/04/18 07:57:48;;;;;;;14.70;5.95;;;9.70;99.90;;;;;;5076026;28;20016;-69
2023/04/18 08:00:17;;;;;;;12.37;5.47;;;9.80;99.90;;;;;;5076122;28;20021;-69
2023/04/18 08:02:43;;;;;;;8.98;5.15;;;9.90;99.90;;;;;;5076117;28;20020;-69
2023/04/18 08:05:09;;;;;;;11.13;5.60;;;9.90;99.90;;;;;;5076962;28;20052;-69
2023/04/18 08:07:35;;;;;;;12.13;5.40;;;9.90;99.90;;;;;;5076883;28;20058;-69
2023/04/18 08:10:00;;;;;;;14.57;5.07;;;10.00;99.90;;;;;;5076425;28;20021;-69
2023/04/18 08:12:26;;;;;;;10.35;4.97;;;10.10;99.90;;;;;;5076745;28;20032;-69
2023/04/18 08:14:52;;;;;;;12.88;5.75;;;10.20;99.90;;;;;;5076449;28;20017;-69
2023/04/18 08:17:17;;;;;;;12.48;5.55;;;10.20;99.90;;;;;;5076747;28;20021;-69
2023/04/18 08:19:44;;;;;;;9.88;4.53;;;10.30;99.90;;;;;;5076728;28;20024;-69
2023/04/18 08:22:10;;;;;;;8.35;4.82;;;10.20;99.90;;;;;;5076247;28;20028;-69
2023/04/18 08:24:37;;;;;;;12.57;4.50;;;10.20;99.90;;;;;;5076774;28;20119;-70
2023/04/18 08:27:03;;;;;;;9.18;4.45;;;10.20;99.90;;;;;;5076785;28;20100;-69
2023/04/18 08:29:28;;;;;;;11.27;4.28;;;10.20;99.90;;;;;;5075723;28;20120;-69
2023/04/18 08:31:54;;;;;;;8.95;4.13;;;10.40;99.90;;;;;;5075813;28;20017;-69
2023/04/18 08:34:19;;;;;;;6.63;3.55;;;10.50;99.90;;;;;;5075963;28;20037;-72
2023/04/18 08:36:45;;;;;;;7.75;3.53;;;10.60;99.90;;;;;;5076655;28;20032;-69
2023/04/18 08:39:10;;;;;;;7.10;3.40;;;10.60;99.90;;;;;;5075797;28;20086;-69
2023/04/18 08:41:37;;;;;;;6.80;3.60;;;10.70;99.90;;;;;;5075895;28;20021;-69
2023/04/18 08:44:03;;;;;;;6.40;3.60;;;10.70;99.90;;;;;;5075781;28;20036;-70
2023/04/18 08:46:32;;;;;;;6.75;3.53;;;10.90;99.90;;;;;;5076051;28;20212;-70
2023/04/18 08:48:59;;;;;;;6.68;3.83;;;10.90;99.90;;;;;;5076418;28;20017;-69
2023/04/18 08:51:29;;;;;;;7.72;3.83;;;10.90;99.90;;;;;;5075742;28;20042;-69
2023/04/18 08:53:56;;;;;;;7.38;3.47;;;11.00;99.90;;;;;;5076470;28;20020;-70
2023/04/18 08:56:24;;;;;;;7.20;3.35;;;11.10;99.90;;;;;;5075850;28;20021;-70
2023/04/18 08:58:51;;;;;;;6.10;3.30;;;11.20;99.90;;;;;;5075650;28;20107;-70
2023/04/18 09:01:16;;;;;;;8.00;3.67;;;11.30;99.90;;;;;;5076355;28;20035;-70
2023/04/18 09:03:42;;;;;;;7.72;3.42;;;11.40;99.90;;;;;;5075669;28;20029;-70
2023/04/18 09:06:14;;;;;;;6.45;3.75;;;11.60;99.90;;;;;;5077965;28;20028;-70
2023/04/18 09:08:42;;;;;;;6.38;3.67;;;11.80;99.90;;;;;;5079159;28;20040;-70
2023/04/18 09:11:24;;;;;;;5.43;3.45;;;12.10;99.90;;;;;;5080098;28;20096;-69
2023/04/18 09:13:52;;;;;;;5.10;3.20;;;12.30;99.90;;;;;;5079082;28;20017;-69
2023/04/18 09:16:21;;;;;;;7.15;3.50;;;12.20;99.90;;;;;;5079285;28;20021;-69
2023/04/18 09:19:16;;;;;;;8.77;3.30;;;12.20;99.90;;;;;;5078906;28;20024;-70
2023/04/18 09:21:47;;;;;;;6.97;3.50;;;12.20;99.90;;;;;;5079428;28;20024;-70
2023/04/18 09:24:22;;;;;;;4.20;2.72;;;12.10;99.90;;;;;;5078867;28;20029;-70
2023/04/18 09:26:48;;;;;;;5.35;3.33;;;12.10;99.90;;;;;;5079713;28;20024;-69
2023/04/18 09:29:16;;;;;;;5.40;3.22;;;12.10;99.90;;;;;;5079512;28;20029;-69
2023/04/18 09:32:00;;;;;;;6.40;3.03;;;12.00;99.90;;;;;;5079592;28;20017;-69
2023/04/18 09:34:27;;;;;;;7.38;4.63;;;12.00;99.90;;;;;;5079713;28;20024;-69
2023/04/18 09:37:09;;;;;;;8.68;3.28;;;12.00;99.90;;;;;;5078915;28;20025;-70
2023/04/18 09:39:36;;;;;;;;;;;12.10;99.90;;;;;;5079886;28;20158;-70
2023/04/18 09:42:01;;;;;;;6.13;3.42;;;12.10;99.90;;;;;;5078965;28;19904;-69
2023/04/18 09:44:27;;;;;;;6.63;3.45;;;12.10;99.90;;;;;;5079279;28;20020;-70
2023/04/18 09:46:52;;;;;;;4.80;2.97;;;12.10;99.90;;;;;;5078690;28;20029;-70
2023/04/18 09:49:18;;;;;;;6.70;3.75;;;12.10;99.90;;;;;;5078419;28;20025;-69
2023/04/18 09:51:49;;;;;;;6.65;3.50;;;12.10;99.90;;;;;;5079234;28;20049;-69
2023/04/18 09:54:15;;;;;;;5.05;2.97;;;12.10;99.90;;;;;;5078479;28;20031;-70
2023/04/18 09:56:44;;;;;;;4.63;2.78;;;12.00;99.90;;;;;;5079145;28;20027;-70
2023/04/18 09:59:10;;;;;;;7.13;3.50;;;12.10;99.90;;;;;;5078643;28;20024;-70
2023/04/18 10:01:36;;;;;;;5.63;3.13;;;12.10;99.90;;;;;;5078241;28;20028;-69
2023/04/18 10:04:05;;;;;;;5.55;3.45;;;12.20;99.90;;;;;;5079242;28;20021;-69
2023/04/18 10:06:38;;;;;;;6.40;3.33;;;12.30;99.90;;;;;;5078571;28;20036;-69
2023/04/18 10:09:04;;;;;;;5.80;3.53;;;12.40;99.90;;;;;;5078823;28;20028;-69
2023/04/18 10:11:31;;;;;;;6.45;3.70;;;12.40;99.90;;;;;;5079151;28;20024;-69
2023/04/18 10:14:00;;;;;;;6.55;3.17;;;12.50;99.90;;;;;;5078390;28;20024;-69
2023/04/18 10:16:28;;;;;;;7.00;2.65;;;12.80;99.90;;;;;;5077574;28;20020;-69
2023/04/18 10:18:53;;;;;;;6.22;3.90;;;13.10;99.90;;;;;;5078204;28;20051;-69
2023/04/18 10:21:20;;;;;;;7.82;4.07;;;13.40;99.90;;;;;;5077896;28;20036;-72
2023/04/18 10:23:47;;;;;;;8.00;4.20;;;13.40;99.90;;;;;;5077817;28;20024;-69
2023/04/18 10:26:13;;;;;;;7.82;3.45;;;13.30;99.90;;;;;;5078641;28;20028;-69
2023/04/18 10:28:57;;;;;;;8.40;4.70;;;13.30;99.90;;;;;;5078346;28;20086;-69
2023/04/18 10:31:25;;;;;;;6.30;4.57;;;13.30;99.90;;;;;;5078778;28;20020;-69
2023/04/18 10:33:59;;;;;;;7.43;3.97;;;13.40;99.90;;;;;;5077488;28;20082;-69
2023/04/18 10:36:26;;;;;;;6.63;4.00;;;13.30;99.90;;;;;;5077558;28;20031;-69
2023/04/18 10:38:54;;;;;;;7.13;4.15;;;13.40;99.90;;;;;;5098819;22;20032;-70
2023/04/18 10:41:27;;;;;;;8.82;4.95;;;13.70;99.90;;;;;;5078280;28;20028;-70
2023/04/18 10:44:05;;;;;;;7.93;5.03;;;14.00;99.90;;;;;;5077308;28;20082;-70
2023/04/18 10:46:31;;;;;;;7.07;4.10;;;14.30;99.90;;;;;;5077449;28;20067;-71
2023/04/18 10:49:18;;;;;;;8.48;4.78;;;14.40;99.90;;;;;;5077452;28;20024;-70
2023/04/18 10:51:45;;;;;;;8.68;4.72;;;14.30;99.90;;;;;;5077328;28;20028;-70
2023/04/18 10:54:19;;;;;;;9.00;4.45;;;14.10;99.90;;;;;;5078075;28;20052;-70
2023/04/18 10:56:52;;;;;;;8.27;5.13;;;13.90;99.90;;;;;;5078226;28;20024;-70
2023/04/18 10:59:25;;;;;;;8.07;4.32;;;14.10;99.90;;;;;;5077906;28;20062;-70
2023/04/18 11:02:24;;;;;;;8.73;4.78;;;14.40;99.90;;;;;;5078148;28;20052;-70
2023/04/18 11:04:54;;;;;;;7.13;4.43;;;15.00;99.90;;;;;;5077822;28;20028;-70
2023/04/18 11:07:37;;;;;;;9.63;4.65;;;15.40;99.90;;;;;;5077849;28;20025;-70
2023/04/18 11:10:04;;;;;;;6.85;4.43;;;15.60;99.90;;;;;;5076835;28;20024;-70
2023/04/18 11:12:35;;;;;;;7.35;4.57;;;15.70;99.90;;;;;;5077638;28;20024;-70
2023/04/18 11:15:02;;;;;;;8.30;5.35;;;15.60;99.90;;;;;;5077159;28;20028;-70
2023/04/18 11:17:31;;;;;;;9.35;5.45;;;15.70;99.90;;;;;;5077538;28;20024;-70
2023/04/18 11:20:07;;;;;;;9.88;5.57;;;15.70;99.90;;;;;;5077244;28;20021;-70
2023/04/18 11:22:42;;;;;;;9.45;5.68;;;15.80;99.90;;;;;;5076957;28;20034;-71
2023/04/18 11:25:08;;;;;;;8.65;5.35;;;16.10;99.90;;;;;;5077026;28;20123;-70
2023/04/18 11:27:34;;;;;;;11.32;5.70;;;16.30;99.90;;;;;;5076558;28;20070;-70
2023/04/18 11:29:59;;;;;;;10.00;5.78;;;16.60;99.90;;;;;;5076846;28;20025;-70
2023/04/18 11:32:25;;;;;;;9.13;5.57;;;16.60;99.90;;;;;;5076834;28;20143;-70
2023/04/18 11:34:52;;;;;;;10.02;5.32;;;16.70;99.90;;;;;;5077722;28;20040;-70
2023/04/18 11:37:18;;;;;;;10.20;5.97;;;16.90;99.90;;;;;;5076431;28;20102;-70
2023/04/18 11:39:43;;;;;;;9.70;5.03;;;17.00;99.90;;;;;;5076360;28;20033;-70
2023/04/18 11:42:09;;;;;;;8.48;4.95;;;17.20;99.90;;;;;;5076321;28;20028;-70
2023/04/18 11:44:38;;;;;;;7.78;5.25;;;17.20;99.90;;;;;;5076378;28;20020;-70
2023/04/18 11:47:20;;;;;;;8.63;5.82;;;17.10;99.90;;;;;;5077241;28;20022;-70
2023/04/18 11:49:45;;;;;;;10.45;5.75;;;17.10;99.90;;;;;;5076287;28;20033;-70
2023/04/18 11:52:12;;;;;;;10.70;6.30;;;17.10;99.90;;;;;;5076410;28;20134;-71
2023/04/18 11:54:42;;;;;;;10.48;6.35;;;17.10;99.90;;;;;;5076252;28;20020;-71
2023/04/18 11:57:37;;;;;;;10.75;6.63;;;16.80;99.90;;;;;;5077170;28;20025;-70
2023/04/18 12:00:05;;;;;;;10.82;6.32;;;16.50;99.90;;;;;;5038701;28;20075;-70
2023/04/18 12:02:45;;;;;;;9.85;6.07;;;16.50;99.90;;;;;;5038874;28;20025;-70
2023/04/18 12:05:13;;;;;;;11.25;6.57;;;16.50;99.90;;;;;;5038845;28;20143;-70
2023/04/18 12:07:44;;;;;;;11.32;6.85;;;16.50;99.90;;;;;;5055272;28;20032;-70
2023/04/18 12:10:29;;;;;;;10.57;6.50;;;16.70;99.90;;;;;;5039264;28;20039;-70
2023/04/18 12:12:58;;;;;;;11.13;6.47;;;16.90;99.90;;;;;;5038425;28;20036;-71
2023/04/18 12:15:27;;;;;;;11.80;6.57;;;17.20;99.90;;;;;;5038776;28;20017;-70
2023/04/18 12:17:58;;;;;;;10.52;6.57;;;17.50;99.90;;;;;;5038684;28;20040;-71
2023/04/18 12:20:24;;;;;;;10.15;6.53;;;17.60;99.90;;;;;;5039149;28;20030;-70
2023/04/18 12:22:50;;;;;;;15.02;7.72;;;17.80;99.90;;;;;;5038612;28;20025;-71
2023/04/18 12:25:25;;;;;;;12.00;6.88;;;18.10;99.90;;;;;;5038625;28;20032;-71
2023/04/18 12:27:59;;;;;;;12.70;7.38;;;18.00;99.90;;;;;;5039032;28;20044;-72
2023/04/18 12:30:30;;;;;;;14.35;7.82;;;18.00;99.90;;;;;;5038656;28;20040;-71
2023/04/18 12:32:58;;;;;;;15.07;8.27;;;17.70;99.90;;;;;;5055646;28;20029;-71
2023/04/18 12:35:24;;;;;;;13.48;7.53;;;17.50;99.90;;;;;;5040473;28;20032;-71
2023/04/18 12:37:51;;;;;;;11.65;7.72;;;18.00;99.90;;;;;;5076078;28;20070;-71
2023/04/18 12:40:18;;;;;;;12.40;8.15;;;18.00;99.90;;;;;;5079171;28;20028;-71
2023/04/18 12:42:45;;;;;;;15.38;8.75;;;17.90;99.90;;;;;;5080788;28;20043;-70
2023/04/18 12:45:13;;;;;;;14.10;8.43;;;18.10;99.90;;;;;;5080535;28;20035;-70
2023/04/18 12:47:40;;;;;;;13.63;7.85;;;17.90;99.90;;;;;;5081396;28;20052;-70